Back to Top

Language: 

My Weather Underground Personal Weather Station Historical Data with Graphs...

Delerius Weather Station Historical Data
Daily Summary for December 1, 2017 Units:  Metric    English   Both
« Previous Day
Next Day »
Daily Weekly Monthly Yearly Custom
  High: Low: Average:
Temperature: 5.6 °C 1.4 °C 3.2 °C
Dew Point: 3.1 °C -0.3 °C 1.3 °C
Humidity: 94 % 77 % 87 %
Wind Speed: 14.5 km/h 1.6 km/h 9.7 km/h
Wind Gust: 29 km/h - -
Wind:- - NW
Pressure: 1027.3 hPa 1016.8 hPa -
Precipitation: 0.76 mm    
Historical Graphs
 
 
Tabular Data for December 1, 2017
Time Temperature Dew Point Pressure Wind Wind Speed Wind Gust Humidity Rainfall Rate (Hourly) solar Conditions
00:00 2 °C 0.8 °C 1016.8 hPa NNW 12.9 km/h 20.9 km/h 92 % 0.25 mm 0 W/m2
00:05 2 °C 0.8 °C 1017.2 hPa NNW 11.3 km/h 29 km/h 92 % 0.51 mm 0 W/m2
00:10 2 °C 0.8 °C 1016.8 hPa North 12.9 km/h 25.7 km/h 92 % 0.51 mm 0 W/m2
00:15 1.8 °C 0.6 °C 1016.8 hPa NNW 12.9 km/h 22.5 km/h 92 % 0.51 mm 0 W/m2
00:20 1.6 °C 0.4 °C 1016.8 hPa NW 14.5 km/h 22.5 km/h 92 % 0.51 mm 0 W/m2
00:25 1.6 °C 0.4 °C 1017.2 hPa NNW 11.3 km/h 20.9 km/h 92 % 0.51 mm 0 W/m2
00:30 1.4 °C 0.2 °C 1017.2 hPa NW 9.7 km/h 17.7 km/h 92 % 0.51 mm 0 W/m2
00:40 1.4 °C 0.4 °C 1016.8 hPa NW 9.7 km/h 14.5 km/h 93 % 0.51 mm 0 W/m2
00:41 1.4 °C 0.4 °C 1016.8 hPa NW 9.7 km/h 14.5 km/h 93 % 0.51 mm 0 W/m2
00:46 1.4 °C 0.4 °C 1017.2 hPa NW 11.3 km/h 16.1 km/h 93 % 0.51 mm 0 W/m2
00:51 1.5 °C 0.5 °C 1017.2 hPa NW 9.7 km/h 20.9 km/h 93 % 0.51 mm 0 W/m2
01:01 1.6 °C 0.7 °C 1017.2 hPa NNW 9.7 km/h 20.9 km/h 94 % 0.51 mm 0 W/m2
01:06 1.7 °C 0.7 °C 1017.2 hPa NW 11.3 km/h 19.3 km/h 93 % 0.51 mm 0 W/m2
01:11 1.7 °C 0.7 °C 1017.5 hPa NW 11.3 km/h 20.9 km/h 93 % 0.51 mm 0 W/m2
01:21 1.7 °C 0.7 °C 1017.5 hPa NW 11.3 km/h 16.1 km/h 93 % 0.25 mm 0 W/m2
01:26 1.7 °C 0.7 °C 1017.5 hPa NW 11.3 km/h 20.9 km/h 93 % 0.25 mm 0 W/m2
01:31 1.7 °C 0.7 °C 1017.5 hPa NW 11.3 km/h 17.7 km/h 93 % 0.25 mm 0 W/m2
01:41 1.8 °C 0.8 °C 1017.8 hPa NW 12.9 km/h 19.3 km/h 93 % 0.25 mm 0 W/m2
01:46 1.9 °C 1.1 °C 1017.8 hPa NNW 14.5 km/h 20.9 km/h 94 % 0.25 mm 0 W/m2
01:51 1.9 °C 0.9 °C 1017.8 hPa NW 14.5 km/h 24.1 km/h 93 % 0.25 mm 0 W/m2
02:01 2 °C 1 °C 1017.8 hPa NNW 11.3 km/h 29 km/h 93 % 0 mm 0 W/m2
02:06 2 °C 1 °C 1018.2 hPa NW 11.3 km/h 19.3 km/h 93 % 0 mm 0 W/m2
02:11 2 °C 1 °C 1018.2 hPa NW 11.3 km/h 20.9 km/h 93 % 0 mm 0 W/m2
02:21 1.9 °C 0.9 °C 1018.2 hPa NW 8 km/h 16.1 km/h 93 % 0 mm 0 W/m2
02:26 1.9 °C 0.9 °C 1018.2 hPa NW 9.7 km/h 19.3 km/h 93 % 0 mm 0 W/m2
02:36 2 °C 1 °C 1018.5 hPa NW 11.3 km/h 24.1 km/h 93 % 0 mm 0 W/m2
02:41 2 °C 1 °C 1018.5 hPa NW 11.3 km/h 17.7 km/h 93 % 0 mm 0 W/m2
02:46 1.9 °C 0.9 °C 1018.5 hPa NW 12.9 km/h 20.9 km/h 93 % 0 mm 0 W/m2
02:56 1.9 °C 0.7 °C 1018.8 hPa NW 11.3 km/h 19.3 km/h 92 % 0 mm 0 W/m2
03:01 1.9 °C 0.9 °C 1018.8 hPa NW 11.3 km/h 20.9 km/h 93 % 0 mm 0 W/m2
03:06 1.9 °C 0.9 °C 1018.8 hPa NW 12.9 km/h 20.9 km/h 93 % 0 mm 0 W/m2
03:13 2 °C 1 °C 1019.2 hPa NW 12.9 km/h 22.5 km/h 93 % 0 mm 0 W/m2
03:19 2.1 °C 1.1 °C 1019.2 hPa NW 11.3 km/h 19.3 km/h 93 % 0 mm 0 W/m2
03:25 2.1 °C 1.1 °C 1019.2 hPa NW 12.9 km/h 19.3 km/h 93 % 0 mm 0 W/m2
03:27 2.1 °C 1.1 °C 1019.2 hPa NW 12.9 km/h 19.3 km/h 93 % 0 mm 0 W/m2
03:31 2.1 °C 0.9 °C 1019.2 hPa NW 9.7 km/h 16.1 km/h 92 % 0 mm 0 W/m2
03:36 2.1 °C 0.9 °C 1019.5 hPa NW 8 km/h 14.5 km/h 92 % 0 mm 0 W/m2
03:41 2.1 °C 0.9 °C 1019.5 hPa NW 9.7 km/h 19.3 km/h 92 % 0 mm 0 W/m2
03:45 2.1 °C 1.1 °C 1019.5 hPa NW 9.7 km/h 16.1 km/h 93 % 0 mm 0 W/m2
03:50 2 °C 1 °C 1019.9 hPa NW 11.3 km/h 20.9 km/h 93 % 0 mm 0 W/m2
03:55 2 °C 1 °C 1019.9 hPa NW 9.7 km/h 14.5 km/h 93 % 0 mm 0 W/m2
04:00 1.9 °C 0.7 °C 1019.9 hPa NW 8 km/h 14.5 km/h 92 % 0 mm 0 W/m2
04:05 1.9 °C 0.7 °C 1019.9 hPa NW 12.9 km/h 17.7 km/h 92 % 0 mm 0 W/m2
04:11 1.8 °C 0.8 °C 1020.2 hPa NW 8 km/h 14.5 km/h 93 % 0 mm 0 W/m2
04:12 1.8 °C 0.8 °C 1020.2 hPa NW 9.7 km/h 14.5 km/h 93 % 0 mm 0 W/m2
04:17 1.8 °C 0.8 °C 1020.2 hPa NW 12.9 km/h 22.5 km/h 93 % 0 mm 0 W/m2
04:22 1.8 °C 0.8 °C 1020.2 hPa NW 11.3 km/h 20.9 km/h 93 % 0 mm 0 W/m2
04:27 1.8 °C 0.8 °C 1020.2 hPa NW 11.3 km/h 19.3 km/h 93 % 0 mm 0 W/m2
04:29 1.8 °C 0.8 °C 1020.2 hPa NW 9.7 km/h 17.7 km/h 93 % 0 mm 0 W/m2
04:34 1.9 °C 0.9 °C 1020.5 hPa NW 11.3 km/h 19.3 km/h 93 % 0 mm 0 W/m2
04:44 1.9 °C 0.9 °C 1020.5 hPa NW 11.3 km/h 17.7 km/h 93 % 0 mm 0 W/m2
04:54 2 °C 1 °C 1020.5 hPa NW 14.5 km/h 22.5 km/h 93 % 0 mm 0 W/m2
04:59 2.1 °C 1.1 °C 1020.5 hPa NW 9.7 km/h 22.5 km/h 93 % 0 mm 0 W/m2
05:04 2.1 °C 1.1 °C 1020.5 hPa NW 11.3 km/h 19.3 km/h 93 % 0 mm 0 W/m2
05:09 2.2 °C 1.2 °C 1020.5 hPa NW 12.9 km/h 22.5 km/h 93 % 0 mm 0 W/m2
05:14 2.2 °C 1.2 °C 1020.9 hPa NW 9.7 km/h 17.7 km/h 93 % 0 mm 0 W/m2
05:19 2.2 °C 1.2 °C 1020.9 hPa NW 11.3 km/h 19.3 km/h 93 % 0 mm 0 W/m2
05:24 2.2 °C 1.2 °C 1020.9 hPa NW 8 km/h 12.9 km/h 93 % 0 mm 0 W/m2
05:29 2.2 °C 1.2 °C 1020.9 hPa NW 9.7 km/h 17.7 km/h 93 % 0.25 mm 0 W/m2
05:39 2.2 °C 1.2 °C 1020.9 hPa NW 9.7 km/h 14.5 km/h 93 % 0.25 mm 0 W/m2
05:44 2.2 °C 1.2 °C 1020.9 hPa NW 11.3 km/h 19.3 km/h 93 % 0.25 mm 0 W/m2
05:54 2.1 °C 0.9 °C 1021.2 hPa NW 9.7 km/h 17.7 km/h 92 % 0.25 mm 0 W/m2
05:59 2.1 °C 1.1 °C 1021.2 hPa NW 8 km/h 12.9 km/h 93 % 0.25 mm 0 W/m2
06:04 2 °C 0.8 °C 1021.2 hPa WNW 1.6 km/h 8 km/h 92 % 0.25 mm 0 W/m2
06:09 1.9 °C 0.7 °C 1021.2 hPa NW 4.8 km/h 9.7 km/h 92 % 0.25 mm 0 W/m2
06:14 1.8 °C 0.6 °C 1021.6 hPa NW 8 km/h 14.5 km/h 92 % 0.25 mm 0 W/m2
06:19 1.8 °C 0.6 °C 1021.6 hPa WNW 8 km/h 12.9 km/h 92 % 0.25 mm 0 W/m2
06:24 1.8 °C 0.8 °C 1021.6 hPa NW 9.7 km/h 12.9 km/h 93 % 0.25 mm 0 W/m2
06:29 1.8 °C 0.8 °C 1021.6 hPa NW 9.7 km/h 16.1 km/h 93 % 0 mm 0 W/m2
06:35 1.8 °C 0.8 °C 1021.6 hPa NW 9.7 km/h 16.1 km/h 93 % 0 mm 0 W/m2
06:40 1.8 °C 0.8 °C 1021.6 hPa NW 11.3 km/h 17.7 km/h 93 % 0 mm 0 W/m2
06:45 1.9 °C 0.9 °C 1021.9 hPa NW 11.3 km/h 19.3 km/h 93 % 0 mm 0 W/m2
06:50 1.9 °C 0.9 °C 1021.9 hPa NW 11.3 km/h 17.7 km/h 93 % 0 mm 0 W/m2
07:00 2 °C 1 °C 1022.2 hPa NW 9.7 km/h 16.1 km/h 93 % 0 mm 0 W/m2
07:05 2.1 °C 1.1 °C 1022.2 hPa NW 11.3 km/h 17.7 km/h 93 % 0 mm 0 W/m2
07:10 2.2 °C 1.2 °C 1022.2 hPa NW 9.7 km/h 14.5 km/h 93 % 0 mm 0 W/m2
07:15 2.2 °C 1.2 °C 1022.2 hPa NW 8 km/h 17.7 km/h 93 % 0 mm 0 W/m2
07:20 2.3 °C 1.3 °C 1022.6 hPa NNW 8 km/h 11.3 km/h 93 % 0 mm 0 W/m2
07:25 2.3 °C 1.3 °C 1022.6 hPa NW 11.3 km/h 17.7 km/h 93 % 0 mm 0 W/m2
07:30 2.3 °C 1.3 °C 1022.6 hPa NW 9.7 km/h 17.7 km/h 93 % 0 mm 0 W/m2
07:35 2.4 °C 1.4 °C 1022.6 hPa NW 8 km/h 14.5 km/h 93 % 0 mm 0 W/m2
07:40 2.4 °C 1.4 °C 1022.6 hPa NW 9.7 km/h 16.1 km/h 93 % 0 mm 0 W/m2
07:45 2.4 °C 1.4 °C 1022.9 hPa NW 12.9 km/h 17.7 km/h 93 % 0 mm 0 W/m2
07:50 2.4 °C 1.4 °C 1022.9 hPa NNW 11.3 km/h 16.1 km/h 93 % 0 mm 0 W/m2
07:55 2.5 °C 1.5 °C 1022.9 hPa NNW 11.3 km/h 19.3 km/h 93 % 0 mm 0 W/m2
08:00 2.6 °C 1.4 °C 1023.2 hPa NW 11.3 km/h 14.5 km/h 92 % 0 mm 0 W/m2
08:05 2.6 °C 1.6 °C 1022.9 hPa NW 9.7 km/h 19.3 km/h 93 % 0 mm 5 W/m2
08:10 2.6 °C 1.6 °C 1023.2 hPa NW 9.7 km/h 16.1 km/h 93 % 0 mm 7 W/m2
08:15 2.6 °C 1.4 °C 1023.2 hPa NW 12.9 km/h 22.5 km/h 92 % 0 mm 9 W/m2
08:20 2.6 °C 1.4 °C 1023.6 hPa NNW 9.7 km/h 14.5 km/h 92 % 0 mm 12 W/m2
08:25 2.6 °C 1.4 °C 1023.6 hPa NNW 9.7 km/h 17.7 km/h 92 % 0 mm 16 W/m2
08:30 2.6 °C 1.4 °C 1023.6 hPa NNW 8 km/h 16.1 km/h 92 % 0 mm 14 W/m2
08:35 2.7 °C 1.6 °C 1023.6 hPa NNW 9.7 km/h 16.1 km/h 92 % 0 mm 18 W/m2
08:40 2.7 °C 1.6 °C 1023.9 hPa NNW 11.3 km/h 17.7 km/h 92 % 0 mm 21 W/m2
08:45 2.8 °C 1.6 °C 1023.9 hPa NW 9.7 km/h 17.7 km/h 92 % 0 mm 21 W/m2
08:50 2.8 °C 1.6 °C 1023.9 hPa NNW 9.7 km/h 16.1 km/h 92 % 0 mm 25 W/m2
09:00 2.7 °C 1.6 °C 1023.9 hPa NNW 6.4 km/h 16.1 km/h 92 % 0 mm 21 W/m2
09:10 2.7 °C 1.6 °C 1023.9 hPa NNW 8 km/h 16.1 km/h 92 % 0 mm 86 W/m2
09:15 2.7 °C 1.6 °C 1024.3 hPa NW 9.7 km/h 16.1 km/h 92 % 0 mm 109 W/m2
09:20 2.7 °C 1.6 °C 1024.3 hPa NW 11.3 km/h 22.5 km/h 92 % 0 mm 46 W/m2
09:26 2.8 °C 1.6 °C 1024.3 hPa NW 12.9 km/h 25.7 km/h 92 % 0 mm 42 W/m2
09:31 2.8 °C 1.6 °C 1024.3 hPa NW 9.7 km/h 19.3 km/h 92 % 0 mm 160 W/m2
09:36 3 °C 1.8 °C 1024.3 hPa NW 9.7 km/h 19.3 km/h 92 % 0 mm 109 W/m2
09:41 3.2 °C 2 °C 1024.6 hPa NW 11.3 km/h 19.3 km/h 92 % 0 mm 74 W/m2
09:46 3.3 °C 2.1 °C 1024.6 hPa NW 14.5 km/h 22.5 km/h 92 % 0 mm 69 W/m2
09:56 3.3 °C 1.9 °C 1024.6 hPa NW 12.9 km/h 19.3 km/h 91 % 0 mm 72 W/m2
10:06 3.3 °C 1.9 °C 1024.6 hPa NW 4.8 km/h 16.1 km/h 91 % 0 mm 37 W/m2
10:11 3.3 °C 1.9 °C 1024.9 hPa NW 9.7 km/h 16.1 km/h 91 % 0 mm 39 W/m2
10:16 3.3 °C 1.9 °C 1024.9 hPa NW 14.5 km/h 22.5 km/h 91 % 0 mm 54 W/m2
10:21 3.3 °C 1.8 °C 1024.9 hPa NNW 9.7 km/h 19.3 km/h 90 % 0 mm 79 W/m2
10:31 3.6 °C 2.3 °C 1024.9 hPa NW 9.7 km/h 14.5 km/h 91 % 0 mm 90 W/m2
10:36 3.6 °C 2.3 °C 1024.9 hPa NNW 9.7 km/h 14.5 km/h 91 % 0 mm 79 W/m2
10:41 3.7 °C 2.2 °C 1024.9 hPa NW 9.7 km/h 16.1 km/h 90 % 0 mm 102 W/m2
10:46 3.8 °C 2.3 °C 1024.9 hPa NW 11.3 km/h 17.7 km/h 90 % 0 mm 76 W/m2
10:51 3.8 °C 2.3 °C 1024.9 hPa NW 8 km/h 14.5 km/h 90 % 0 mm 113 W/m2
10:56 4 °C 2.5 °C 1024.9 hPa NNW 8 km/h 12.9 km/h 90 % 0 mm 67 W/m2
11:01 4 °C 2.3 °C 1024.9 hPa NNW 9.7 km/h 16.1 km/h 89 % 0 mm 90 W/m2
11:06 4 °C 2.3 °C 1024.9 hPa NNW 9.7 km/h 17.7 km/h 89 % 0 mm 98 W/m2
11:11 4 °C 2.3 °C 1024.9 hPa NNW 9.7 km/h 16.1 km/h 89 % 0 mm 90 W/m2
11:16 4.1 °C 2.4 °C 1024.9 hPa NNW 12.9 km/h 24.1 km/h 89 % 0 mm 97 W/m2
11:21 4.3 °C 2.7 °C 1024.9 hPa NW 4.8 km/h 16.1 km/h 89 % 0 mm 132 W/m2
11:32 4.4 °C 2.6 °C 1024.9 hPa NNW 14.5 km/h 25.7 km/h 88 % 0 mm 97 W/m2
11:37 4.4 °C 2.4 °C 1024.9 hPa NNW 12.9 km/h 19.3 km/h 87 % 0 mm 93 W/m2
11:42 4.6 °C 2.8 °C 1024.9 hPa NNW 9.7 km/h 16.1 km/h 88 % 0 mm 285 W/m2
11:52 4.9 °C 2.9 °C 1025.3 hPa NNW 8 km/h 19.3 km/h 87 % 0 mm 169 W/m2
11:57 5 °C 2.8 °C 1025.3 hPa North 12.9 km/h 20.9 km/h 86 % 0 mm 105 W/m2
12:02 4.9 °C 2.8 °C 1024.9 hPa NNW 9.7 km/h 19.3 km/h 86 % 0 mm 120 W/m2
12:07 4.8 °C 2.7 °C 1024.9 hPa North 9.7 km/h 17.7 km/h 86 % 0 mm 148 W/m2
12:18 4.9 °C 2.8 °C 1025.3 hPa North 8 km/h 14.5 km/h 86 % 0 mm 255 W/m2
12:28 5.2 °C 2.9 °C 1024.9 hPa NNW 8 km/h 12.9 km/h 85 % 0 mm 253 W/m2
12:38 5.4 °C 3.1 °C 1025.3 hPa NNE 4.8 km/h 12.9 km/h 85 % 0 mm 95 W/m2
12:48 5.3 °C 2.7 °C 1025.3 hPa NNW 8 km/h 17.7 km/h 83 % 0 mm 58 W/m2
12:53 5.2 °C 2.7 °C 1025.3 hPa NNW 4.8 km/h 9.7 km/h 84 % 0 mm 70 W/m2
12:58 5.2 °C 2.7 °C 1025.3 hPa NNW 9.7 km/h 16.1 km/h 84 % 0 mm 98 W/m2
13:03 5.1 °C 2.6 °C 1025.3 hPa NNW 11.3 km/h 19.3 km/h 84 % 0 mm 60 W/m2
13:13 5.2 °C 2.7 °C 1025.3 hPa NW 8 km/h 14.5 km/h 84 % 0 mm 86 W/m2
13:18 5.3 °C 2.8 °C 1025.3 hPa NNW 12.9 km/h 19.3 km/h 84 % 0 mm 58 W/m2
13:23 5.3 °C 2.7 °C 1025.3 hPa NNW 9.7 km/h 17.7 km/h 83 % 0 mm 69 W/m2
13:28 5.2 °C 2.6 °C 1025.3 hPa NNW 14.5 km/h 22.5 km/h 83 % 0 mm 65 W/m2
13:33 5.1 °C 2.4 °C 1025.6 hPa NNW 11.3 km/h 19.3 km/h 83 % 0 mm 58 W/m2
13:38 5.1 °C 2.4 °C 1025.3 hPa NNW 8 km/h 16.1 km/h 83 % 0 mm 76 W/m2
13:48 5.1 °C 2.6 °C 1025.3 hPa NW 12.9 km/h 20.9 km/h 84 % 0 mm 149 W/m2
13:53 5.2 °C 2.7 °C 1025.3 hPa NW 12.9 km/h 19.3 km/h 84 % 0 mm 134 W/m2
13:58 5.4 °C 2.9 °C 1025.3 hPa NW 11.3 km/h 17.7 km/h 84 % 0 mm 146 W/m2
14:03 5.6 °C 2.9 °C 1025.3 hPa NW 11.3 km/h 17.7 km/h 83 % 0 mm 123 W/m2
14:08 5.6 °C 2.8 °C 1025.3 hPa NW 12.9 km/h 17.7 km/h 82 % 0 mm 111 W/m2
14:13 5.5 °C 2.7 °C 1025.3 hPa NW 11.3 km/h 17.7 km/h 82 % 0 mm 88 W/m2
14:23 5.3 °C 2.5 °C 1025.3 hPa NW 12.9 km/h 22.5 km/h 82 % 0 mm 74 W/m2
14:28 5.2 °C 2.4 °C 1025.6 hPa NW 11.3 km/h 19.3 km/h 82 % 0 mm 63 W/m2
14:33 5.1 °C 2.3 °C 1025.6 hPa NNW 11.3 km/h 16.1 km/h 82 % 0 mm 49 W/m2
14:38 5 °C 2.2 °C 1025.6 hPa NW 11.3 km/h 16.1 km/h 82 % 0 mm 44 W/m2
14:43 5 °C 2.2 °C 1025.6 hPa NW 11.3 km/h 17.7 km/h 82 % 0 mm 44 W/m2
14:48 4.9 °C 2.1 °C 1025.6 hPa NNW 12.9 km/h 22.5 km/h 82 % 0 mm 40 W/m2
14:58 4.8 °C 2 °C 1026 hPa NNW 12.9 km/h 20.9 km/h 82 % 0 mm 23 W/m2
15:03 4.7 °C 1.9 °C 1026 hPa NNW 11.3 km/h 20.9 km/h 82 % 0 mm 23 W/m2
15:18 4.6 °C 1.8 °C 1026 hPa NNW 9.7 km/h 20.9 km/h 82 % 0 mm 14 W/m2
15:28 4.4 °C 1.6 °C 1026 hPa NNW 8 km/h 22.5 km/h 82 % 0 mm 11 W/m2
15:43 4.3 °C 1.7 °C 1026 hPa NW 8 km/h 12.9 km/h 83 % 0 mm 7 W/m2
15:54 4.3 °C 1.7 °C 1026.3 hPa NW 8 km/h 14.5 km/h 83 % 0 mm 5 W/m2
15:59 4.3 °C 1.7 °C 1026.3 hPa NW 8 km/h 16.1 km/h 83 % 0 mm 0 W/m2
16:14 4.3 °C 1.7 °C 1026.3 hPa NW 6.4 km/h 11.3 km/h 83 % 0 mm 0 W/m2
16:19 4.3 °C 1.7 °C 1026.3 hPa WNW 4.8 km/h 11.3 km/h 83 % 0 mm 0 W/m2
16:24 4.2 °C 1.6 °C 1026.3 hPa WNW 6.4 km/h 9.7 km/h 83 % 0 mm 0 W/m2
16:29 4.2 °C 1.6 °C 1026.3 hPa WNW 8 km/h 11.3 km/h 83 % 0 mm 0 W/m2
16:34 4.2 °C 1.6 °C 1026.3 hPa NW 8 km/h 16.1 km/h 83 % 0 mm 0 W/m2
16:40 4.1 °C 1.6 °C 1026.6 hPa NW 9.7 km/h 16.1 km/h 84 % 0 mm 0 W/m2
16:45 4.1 °C 1.6 °C 1026.6 hPa NW 9.7 km/h 16.1 km/h 84 % 0 mm 0 W/m2
16:50 4.1 °C 1.4 °C 1026.6 hPa NW 8 km/h 12.9 km/h 83 % 0 mm 0 W/m2
16:55 4.1 °C 1.4 °C 1026.6 hPa NW 8 km/h 12.9 km/h 83 % 0 mm 0 W/m2
17:00 4.1 °C 1.4 °C 1026.6 hPa NW 8 km/h 16.1 km/h 83 % 0 mm 0 W/m2
17:05 4.1 °C 1.4 °C 1026.6 hPa NW 8 km/h 12.9 km/h 83 % 0 mm 0 W/m2
17:10 4.1 °C 1.4 °C 1026.6 hPa NW 8 km/h 16.1 km/h 83 % 0 mm 0 W/m2
17:20 4.2 °C 1.4 °C 1026.6 hPa NW 8 km/h 12.9 km/h 82 % 0 mm 0 W/m2
17:25 4.2 °C 1.4 °C 1026.6 hPa NW 9.7 km/h 12.9 km/h 82 % 0 mm 0 W/m2
17:35 4.2 °C 1.4 °C 1026.6 hPa NW 8 km/h 12.9 km/h 82 % 0 mm 0 W/m2
17:47 4.1 °C 1.3 °C 1026.6 hPa WNW 8 km/h 11.3 km/h 82 % 0 mm 0 W/m2
17:52 4.1 °C 1.3 °C 1026.6 hPa WNW 8 km/h 11.3 km/h 82 % 0 mm 0 W/m2
17:57 4.1 °C 1.3 °C 1026.6 hPa WNW 8 km/h 11.3 km/h 82 % 0 mm 0 W/m2
18:12 3.9 °C 1.1 °C 1026.6 hPa NW 8 km/h 8 km/h 82 % 0 mm 0 W/m2
18:17 3.9 °C 1.1 °C 1026.6 hPa NW 8 km/h 8 km/h 82 % 0 mm 0 W/m2
18:22 3.9 °C 1.1 °C 1026.6 hPa NW 8 km/h 8 km/h 82 % 0 mm 0 W/m2
18:27 3.9 °C 1.1 °C 1026.6 hPa NW 8 km/h 8 km/h 82 % 0 mm 0 W/m2
18:32 3.9 °C 1.1 °C 1027 hPa NW 8 km/h 8 km/h 82 % 0 mm 0 W/m2
18:37 3.9 °C 1.1 °C 1026.6 hPa NW 8 km/h 8 km/h 82 % 0 mm 0 W/m2
18:42 3.9 °C 1.1 °C 1026.6 hPa NW 8 km/h 8 km/h 82 % 0 mm 0 W/m2
18:47 3.9 °C 1.1 °C 1026.6 hPa NW 8 km/h 8 km/h 82 % 0 mm 0 W/m2
18:52 3.9 °C 1.1 °C 1027 hPa NW 8 km/h 8 km/h 82 % 0 mm 0 W/m2
18:57 3.9 °C 1.1 °C 1026.6 hPa NW 8 km/h 8 km/h 82 % 0 mm 0 W/m2
19:02 3.9 °C 1.1 °C 1027 hPa NW 8 km/h 8 km/h 82 % 0 mm 0 W/m2
19:07 3.9 °C 1.1 °C 1027 hPa NW 8 km/h 8 km/h 82 % 0 mm 0 W/m2
19:12 3.9 °C 1.1 °C 1027 hPa NW 8 km/h 8 km/h 82 % 0 mm 0 W/m2
19:17 3.9 °C 1.1 °C 1027 hPa NW 8 km/h 8 km/h 82 % 0 mm 0 W/m2
19:22 3.9 °C 1.1 °C 1026.6 hPa NW 8 km/h 8 km/h 82 % 0 mm 0 W/m2
19:27 3.9 °C 1.1 °C 1027 hPa NW 8 km/h 8 km/h 82 % 0 mm 0 W/m2
19:32 3.9 °C 1.1 °C 1027 hPa NW 8 km/h 8 km/h 82 % 0 mm 0 W/m2
19:37 3.9 °C 1.1 °C 1027 hPa NW 8 km/h 8 km/h 82 % 0 mm 0 W/m2
19:52 3.9 °C 1.1 °C 1027 hPa NW 8 km/h 8 km/h 82 % 0 mm 0 W/m2
19:57 3.9 °C 1.1 °C 1027 hPa NW 8 km/h 8 km/h 82 % 0 mm 0 W/m2
20:02 3.9 °C 1.1 °C 1027 hPa NW 8 km/h 8 km/h 82 % 0 mm 0 W/m2
20:07 3.9 °C 1.1 °C 1027 hPa NW 8 km/h 8 km/h 82 % 0 mm 0 W/m2
20:12 3.9 °C 1.1 °C 1027.3 hPa NW 8 km/h 8 km/h 82 % 0 mm 0 W/m2
20:22 3.9 °C 1.1 °C 1027.3 hPa NW 8 km/h 8 km/h 82 % 0 mm 0 W/m2
20:27 3.9 °C 1.1 °C 1027.3 hPa NW 8 km/h 8 km/h 82 % 0 mm 0 W/m2
20:37 3.9 °C 1.1 °C 1027.3 hPa NW 8 km/h 8 km/h 82 % 0 mm 0 W/m2
20:42 3.9 °C 1.1 °C 1027 hPa NW 8 km/h 8 km/h 82 % 0 mm 0 W/m2
20:52 3.6 °C 0.7 °C 1027.3 hPa NW 8 km/h 8 km/h 81 % 0 mm 0 W/m2
20:57 3.5 °C 0.6 °C 1027.3 hPa WNW 4.8 km/h 6.4 km/h 81 % 0 mm 0 W/m2
21:02 3.5 °C 0.6 °C 1027.3 hPa WNW 6.4 km/h 9.7 km/h 81 % 0 mm 0 W/m2
21:07 3.4 °C 0.4 °C 1027.3 hPa WNW 8 km/h 11.3 km/h 81 % 0 mm 0 W/m2
21:12 3.4 °C 0.4 °C 1027.3 hPa WNW 8 km/h 12.9 km/h 81 % 0 mm 0 W/m2
21:17 3.5 °C 0.6 °C 1027 hPa WNW 8 km/h 9.7 km/h 81 % 0 mm 0 W/m2
21:27 3.5 °C 0.4 °C 1027 hPa WNW 9.7 km/h 12.9 km/h 80 % 0 mm 0 W/m2
21:32 3.5 °C 0.4 °C 1027 hPa WNW 8 km/h 12.9 km/h 80 % 0 mm 0 W/m2
21:37 3.5 °C 0.4 °C 1027 hPa WNW 8 km/h 11.3 km/h 80 % 0 mm 0 W/m2
21:42 3.5 °C 0.4 °C 1027.3 hPa WNW 9.7 km/h 12.9 km/h 80 % 0 mm 0 W/m2
21:47 3.5 °C 0.4 °C 1027.3 hPa WNW 9.7 km/h 12.9 km/h 80 % 0 mm 0 W/m2
21:52 3.4 °C 0.3 °C 1027.3 hPa WNW 9.7 km/h 14.5 km/h 80 % 0 mm 0 W/m2
21:57 3.4 °C 0.3 °C 1027.3 hPa WNW 9.7 km/h 14.5 km/h 80 % 0 mm 0 W/m2
22:02 3.4 °C 0.3 °C 1027.3 hPa WNW 9.7 km/h 12.9 km/h 80 % 0 mm 0 W/m2
22:07 3.4 °C 0.3 °C 1027.3 hPa WNW 9.7 km/h 12.9 km/h 80 % 0 mm 0 W/m2
22:12 3.4 °C 0.3 °C 1027.3 hPa WNW 11.3 km/h 16.1 km/h 80 % 0 mm 0 W/m2
22:37 3.4 °C 0.1 °C 1027.3 hPa WNW 11.3 km/h 14.5 km/h 79 % 0 mm 0 W/m2
22:42 3.4 °C 0.1 °C 1027 hPa WNW 9.7 km/h 12.9 km/h 79 % 0 mm 0 W/m2
22:47 3.4 °C 0.1 °C 1027 hPa WNW 8 km/h 11.3 km/h 79 % 0 mm 0 W/m2
23:02 3.4 °C 0.1 °C 1026.6 hPa WNW 9.7 km/h 12.9 km/h 79 % 0 mm 0 W/m2
23:07 3.4 °C 0.1 °C 1026.6 hPa WNW 8 km/h 11.3 km/h 79 % 0 mm 0 W/m2
23:12 3.4 °C -0.1 °C 1027 hPa WNW 8 km/h 14.5 km/h 78 % 0 mm 0 W/m2
23:17 3.4 °C -0.1 °C 1027 hPa WNW 8 km/h 11.3 km/h 78 % 0 mm 0 W/m2
23:23 3.4 °C -0.1 °C 1027 hPa WNW 8 km/h 12.9 km/h 78 % 0 mm 0 W/m2
23:25 3.4 °C -0.1 °C 1027 hPa WNW 6.4 km/h 9.7 km/h 78 % 0 mm 0 W/m2
23:30 3.4 °C -0.1 °C 1027 hPa WNW 8 km/h 11.3 km/h 78 % 0 mm 0 W/m2
23:35 3.4 °C -0.1 °C 1027 hPa WNW 6.4 km/h 11.3 km/h 78 % 0 mm 0 W/m2
23:45 3.4 °C -0.1 °C 1027 hPa WNW 8 km/h 12.9 km/h 78 % 0 mm 0 W/m2
23:50 3.4 °C -0.3 °C 1027 hPa WNW 4.8 km/h 11.3 km/h 77 % 0 mm 0 W/m2
Delerius-Weather
Compliments of Weather Underground - 2 mb

Data updates at regular intervals.